Main page
METAR-TAF:

METAR-TAF

Airports :

Sainte Marie Airport

Île Sainte-Marie, Madagascar

latitude: 17-05S, longitude: 049-49E, elevation: 2 m

Current weather observation

The report was made 2 hours and 38 minutes ago, at 03:00 UTC
Wind 8 kt from the West/Southwest
Temperature 22°C
Humidity 94%
Pressure 1021 hPa
Visibility 10 km or more
Few clouds at a height of 2000 ft

METAR: FMMS 180300Z 25008KT 9999 FEW020 22/21 Q1021

Time: 08:38 (05:38 UTC)


TAF: missing

Weather observations and forecasts of more than 4000 airports (METAR and TAF reports).

The available stations are represented by yellow and red dots on the map.

Hover mouse over dot to see the name of the station.

Then click to see weather observations and forecasts.

To change the map : click on the green buttons with a black cross to zoom in, on the green button with a dash to zoom out, or on the green arrows for adjacent maps.


METAR-TAF: